createdAt,value
2023-04-11T00:00:34.000Z,74.54
2023-04-11T00:01:35.000Z,75.06
2023-04-11T00:02:37.000Z,74.79
2023-04-11T00:03:36.000Z,74.66
2023-04-11T00:04:37.000Z,75.36
2023-04-11T00:05:34.000Z,74.57
2023-04-11T00:06:35.000Z,74.66
2023-04-11T00:07:35.000Z,74.95
2023-04-11T00:08:34.000Z,74.84
2023-04-11T00:09:35.000Z,73.86
2023-04-11T00:10:34.000Z,74.36
2023-04-11T00:11:35.000Z,74.11
2023-04-11T00:12:35.000Z,75.51
2023-04-11T00:13:36.000Z,75.30
2023-04-11T00:14:35.000Z,75.88
2023-04-11T00:15:35.000Z,76.09
2023-04-11T00:16:35.000Z,76.15
2023-04-11T00:17:36.000Z,76.50
2023-04-11T00:18:38.000Z,77.25
2023-04-11T00:19:34.000Z,77.46
2023-04-11T00:20:34.000Z,78.39
2023-04-11T00:21:38.000Z,78.24
2023-04-11T00:22:35.000Z,77.72
2023-04-11T00:23:34.000Z,78.42
2023-04-11T00:24:34.000Z,78.86
2023-04-11T00:25:36.000Z,79.44
2023-04-11T00:26:34.000Z,81.28
2023-04-11T00:27:34.000Z,81.12
2023-04-11T00:28:34.000Z,81.88
2023-04-11T00:29:35.000Z,81.50
2023-04-11T00:30:34.000Z,82.40
2023-04-11T00:31:34.000Z,82.09
2023-04-11T00:32:34.000Z,84.00
2023-04-11T00:33:34.000Z,84.04
2023-04-11T00:34:34.000Z,83.73
2023-04-11T00:35:36.000Z,84.68
2023-04-11T00:36:34.000Z,87.29
2023-04-11T00:37:34.000Z,87.38
2023-04-11T00:38:35.000Z,87.65
2023-04-11T00:39:34.000Z,86.32
2023-04-11T00:40:34.000Z,87.67
2023-04-11T00:41:34.000Z,86.78
2023-04-11T00:42:34.000Z,88.46
2023-04-11T00:43:35.000Z,87.49
2023-04-11T00:44:35.000Z,90.54
2023-04-11T00:45:35.000Z,91.34
2023-04-11T00:46:34.000Z,92.94
2023-04-11T00:47:35.000Z,92.33
2023-04-11T00:48:35.000Z,93.74
2023-04-11T00:49:35.000Z,94.98
2023-04-11T00:50:39.000Z,94.67
2023-04-11T00:51:34.000Z,95.34
2023-04-11T00:52:35.000Z,95.67
2023-04-11T00:53:35.000Z,96.83
2023-04-11T00:54:34.000Z,97.74
2023-04-11T00:55:34.000Z,98.25
2023-04-11T00:56:34.000Z,98.30
2023-04-11T00:57:34.000Z,98.36
2023-04-11T00:58:37.000Z,96.62
2023-04-11T00:59:34.000Z,96.14
2023-04-11T01:00:34.000Z,94.96
2023-04-11T01:01:34.000Z,95.54
2023-04-11T01:02:35.000Z,95.55
2023-04-11T01:03:38.000Z,95.19
2023-04-11T01:04:34.000Z,94.45
2023-04-11T01:05:34.000Z,95.90
2023-04-11T01:06:34.000Z,95.07
2023-04-11T01:07:35.000Z,94.55
2023-04-11T01:08:35.000Z,93.93
2023-04-11T01:09:34.000Z,93.30
2023-04-11T01:10:34.000Z,94.47
2023-04-11T01:11:34.000Z,92.72
2023-04-11T01:12:36.000Z,92.98
2023-04-11T01:13:38.000Z,92.22
2023-04-11T01:14:34.000Z,94.01
2023-04-11T01:15:34.000Z,92.11
2023-04-11T01:16:34.000Z,91.74
2023-04-11T01:17:34.000Z,91.29
2023-04-11T01:18:34.000Z,92.17
2023-04-11T01:19:34.000Z,93.06
2023-04-11T01:20:34.000Z,91.28
2023-04-11T01:21:36.000Z,91.54
2023-04-11T01:22:36.000Z,90.56
2023-04-11T01:23:34.000Z,90.89
2023-04-11T01:24:34.000Z,90.13
2023-04-11T01:25:34.000Z,89.90
2023-04-11T01:26:34.000Z,93.13
2023-04-11T01:27:36.000Z,91.34
2023-04-11T01:28:35.000Z,95.45
2023-04-11T01:29:35.000Z,95.99
2023-04-11T01:30:34.000Z,94.80
2023-04-11T01:31:34.000Z,95.15
2023-04-11T01:32:34.000Z,95.63
2023-04-11T01:33:35.000Z,95.84
2023-04-11T01:34:38.000Z,95.72
2023-04-11T01:35:35.000Z,96.83
2023-04-11T01:36:36.000Z,96.25
2023-04-11T01:37:35.000Z,97.07
2023-04-11T01:38:35.000Z,100.00
2023-04-11T01:39:35.000Z,100.00
2023-04-11T01:40:35.000Z,100.00
2023-04-11T01:41:36.000Z,100.00
2023-04-11T01:42:37.000Z,100.00
2023-04-11T01:43:35.000Z,100.00
2023-04-11T01:44:35.000Z,100.00
2023-04-11T01:45:35.000Z,100.00
2023-04-11T01:46:34.000Z,100.00
2023-04-11T01:47:35.000Z,100.00
2023-04-11T01:48:35.000Z,100.00
2023-04-11T01:49:34.000Z,100.00
2023-04-11T01:50:35.000Z,100.00
2023-04-11T01:51:35.000Z,100.00
2023-04-11T01:52:34.000Z,100.00
2023-04-11T01:53:34.000Z,100.00
2023-04-11T01:54:34.000Z,100.00
2023-04-11T01:55:34.000Z,100.00
2023-04-11T01:56:34.000Z,100.00
2023-04-11T01:57:34.000Z,100.00
2023-04-11T01:58:34.000Z,100.00
2023-04-11T01:59:34.000Z,100.00
2023-04-11T02:00:35.000Z,99.78
2023-04-11T02:01:34.000Z,99.90
2023-04-11T02:02:33.000Z,99.13
2023-04-11T02:03:34.000Z,100.00
2023-04-11T02:04:34.000Z,100.00
2023-04-11T02:05:34.000Z,100.00
2023-04-11T02:06:34.000Z,100.00
2023-04-11T02:07:34.000Z,99.94
2023-04-11T02:08:33.000Z,98.88
2023-04-11T02:09:34.000Z,98.63
2023-04-11T02:10:33.000Z,97.30
2023-04-11T02:11:34.000Z,98.04
2023-04-11T02:12:34.000Z,98.96
2023-04-11T02:13:34.000Z,97.83
2023-04-11T02:14:43.000Z,95.96
2023-04-11T02:15:33.000Z,96.06
2023-04-11T02:16:45.000Z,95.86
2023-04-11T02:17:35.000Z,97.58
2023-04-11T02:18:34.000Z,97.10
2023-04-11T02:19:35.000Z,96.45
2023-04-11T02:20:35.000Z,95.34
2023-04-11T02:21:34.000Z,95.08
2023-04-11T02:22:33.000Z,95.54
2023-04-11T02:23:34.000Z,95.33
2023-04-11T02:24:35.000Z,94.38
2023-04-11T02:25:36.000Z,95.08
2023-04-11T02:26:34.000Z,95.04
2023-04-11T02:27:35.000Z,95.29
2023-04-11T02:28:35.000Z,95.42
2023-04-11T02:29:35.000Z,95.51
2023-04-11T02:30:34.000Z,95.11
2023-04-11T02:31:35.000Z,94.98
2023-04-11T02:32:36.000Z,96.61
2023-04-11T02:33:34.000Z,94.98
2023-04-11T02:34:34.000Z,95.77
2023-04-11T02:35:34.000Z,94.82
2023-04-11T02:36:35.000Z,95.16
2023-04-11T02:37:35.000Z,95.38
2023-04-11T02:38:36.000Z,95.58
2023-04-11T02:39:35.000Z,95.50
2023-04-11T02:40:34.000Z,95.72
2023-04-11T02:41:37.000Z,95.60
2023-04-11T02:42:35.000Z,95.24
2023-04-11T02:43:35.000Z,95.41
2023-04-11T02:44:34.000Z,95.59
2023-04-11T02:45:34.000Z,95.65
2023-04-11T02:46:35.000Z,94.90
2023-04-11T02:47:35.000Z,94.29
2023-04-11T02:48:34.000Z,95.13
2023-04-11T02:49:34.000Z,93.60
2023-04-11T02:50:35.000Z,92.93
2023-04-11T02:51:35.000Z,93.08
2023-04-11T02:52:37.000Z,92.69
2023-04-11T02:53:34.000Z,93.28
2023-04-11T02:54:33.000Z,94.53
2023-04-11T02:55:33.000Z,95.34
2023-04-11T02:56:36.000Z,94.73
2023-04-11T02:57:34.000Z,94.26
2023-04-11T02:58:37.000Z,95.57
2023-04-11T02:59:34.000Z,94.98
2023-04-11T03:00:35.000Z,94.32
2023-04-11T03:01:35.000Z,94.23
2023-04-11T03:02:34.000Z,93.73
2023-04-11T03:03:33.000Z,93.34
2023-04-11T03:04:34.000Z,94.45
2023-04-11T03:05:34.000Z,93.65
2023-04-11T03:06:34.000Z,93.10
2023-04-11T03:07:36.000Z,93.01
2023-04-11T03:08:37.000Z,93.59
2023-04-11T03:09:33.000Z,93.58
2023-04-11T03:10:34.000Z,95.66
2023-04-11T03:11:33.000Z,95.74
2023-04-11T03:12:34.000Z,95.80
2023-04-11T03:13:35.000Z,95.22
2023-04-11T03:14:33.000Z,95.09
2023-04-11T03:15:34.000Z,96.00
2023-04-11T03:16:34.000Z,96.27
2023-04-11T03:17:33.000Z,95.49
2023-04-11T03:18:33.000Z,94.95
2023-04-11T03:19:33.000Z,94.59
2023-04-11T03:20:34.000Z,93.64
2023-04-11T03:21:33.000Z,94.13
2023-04-11T03:22:33.000Z,93.59
2023-04-11T03:23:34.000Z,93.22
2023-04-11T03:24:34.000Z,92.50
2023-04-11T03:25:36.000Z,92.51
2023-04-11T03:26:34.000Z,91.87
2023-04-11T03:27:34.000Z,93.90
2023-04-11T03:28:34.000Z,95.55
2023-04-11T03:29:34.000Z,95.01
2023-04-11T03:30:36.000Z,95.76
2023-04-11T03:31:34.000Z,95.14
2023-04-11T03:32:34.000Z,95.22
2023-04-11T03:33:34.000Z,94.79
2023-04-11T03:34:34.000Z,96.95
2023-04-11T03:35:34.000Z,95.59
2023-04-11T03:36:34.000Z,94.92
2023-04-11T03:37:34.000Z,94.53
2023-04-11T03:38:34.000Z,97.28
2023-04-11T03:39:34.000Z,96.97
2023-04-11T03:40:34.000Z,95.82
2023-04-11T03:41:34.000Z,94.49
2023-04-11T03:42:34.000Z,93.90
2023-04-11T03:43:34.000Z,93.83
2023-04-11T03:44:34.000Z,94.37
2023-04-11T03:45:34.000Z,93.91
2023-04-11T03:46:34.000Z,94.92
2023-04-11T03:47:34.000Z,95.49
2023-04-11T03:48:34.000Z,95.22
2023-04-11T03:49:34.000Z,95.41
2023-04-11T03:50:34.000Z,94.94
2023-04-11T03:51:34.000Z,95.40
2023-04-11T03:52:34.000Z,96.00
2023-04-11T03:53:34.000Z,95.12
2023-04-11T03:54:36.000Z,95.18
2023-04-11T03:55:34.000Z,94.67
2023-04-11T03:56:34.000Z,97.45
2023-04-11T03:57:35.000Z,98.56
2023-04-11T03:58:34.000Z,100.00
2023-04-11T03:59:34.000Z,100.00
2023-04-11T04:00:34.000Z,100.00
2023-04-11T04:01:36.000Z,100.00
2023-04-11T04:02:34.000Z,100.00
2023-04-11T04:03:34.000Z,100.00
2023-04-11T04:04:35.000Z,100.00
2023-04-11T04:05:34.000Z,100.00
2023-04-11T04:06:34.000Z,100.00
2023-04-11T04:07:34.000Z,100.00
2023-04-11T04:08:34.000Z,100.00
2023-04-11T04:09:34.000Z,100.00
2023-04-11T04:10:34.000Z,100.00
2023-04-11T04:11:34.000Z,100.00
2023-04-11T04:12:34.000Z,100.00
2023-04-11T04:13:34.000Z,100.00
2023-04-11T04:14:34.000Z,100.00
2023-04-11T04:15:34.000Z,100.00
2023-04-11T04:16:34.000Z,100.00
2023-04-11T04:17:34.000Z,100.00
2023-04-11T04:18:34.000Z,100.00
2023-04-11T04:19:34.000Z,100.00
2023-04-11T04:20:34.000Z,100.00
2023-04-11T04:21:36.000Z,100.00
2023-04-11T04:22:34.000Z,100.00
2023-04-11T04:23:34.000Z,100.00
2023-04-11T04:24:38.000Z,100.00
2023-04-11T04:25:34.000Z,100.00
2023-04-11T04:26:37.000Z,100.00
2023-04-11T04:27:34.000Z,100.00
2023-04-11T04:28:34.000Z,100.00
2023-04-11T04:29:38.000Z,100.00
2023-04-11T04:30:36.000Z,100.00
2023-04-11T04:31:34.000Z,100.00
2023-04-11T04:32:34.000Z,100.00
2023-04-11T04:33:34.000Z,100.00
2023-04-11T04:34:39.000Z,100.00
2023-04-11T04:35:34.000Z,100.00
2023-04-11T04:36:44.000Z,100.00
2023-04-11T04:37:38.000Z,100.00
2023-04-11T04:38:36.000Z,99.47
2023-04-11T04:39:36.000Z,98.78
2023-04-11T04:40:36.000Z,98.51
2023-04-11T04:41:34.000Z,98.13
2023-04-11T04:42:34.000Z,97.83
2023-04-11T04:43:34.000Z,99.83
2023-04-11T04:44:34.000Z,98.65
2023-04-11T04:45:34.000Z,98.50
2023-04-11T04:46:35.000Z,98.90
2023-04-11T04:47:35.000Z,99.22
2023-04-11T04:48:34.000Z,99.60
2023-04-11T04:49:34.000Z,100.00
2023-04-11T04:50:34.000Z,99.57
2023-04-11T04:51:35.000Z,99.05
2023-04-11T04:52:34.000Z,99.51
2023-04-11T04:53:36.000Z,100.00
2023-04-11T04:54:34.000Z,100.00
2023-04-11T04:55:34.000Z,100.00
2023-04-11T04:56:33.000Z,100.00
2023-04-11T04:57:34.000Z,99.51
2023-04-11T04:58:34.000Z,98.97
2023-04-11T04:59:34.000Z,98.19
2023-04-11T05:00:34.000Z,98.09
2023-04-11T05:01:38.000Z,98.18
2023-04-11T05:02:36.000Z,98.54
2023-04-11T05:03:36.000Z,98.61
2023-04-11T05:04:34.000Z,98.67
2023-04-11T05:05:34.000Z,100.00
2023-04-11T05:06:34.000Z,100.00
2023-04-11T05:07:34.000Z,100.00
2023-04-11T05:08:34.000Z,100.00
2023-04-11T05:09:34.000Z,99.48
2023-04-11T05:10:33.000Z,100.00
2023-04-11T05:11:34.000Z,99.69
2023-04-11T05:12:34.000Z,100.00
2023-04-11T05:13:34.000Z,100.00
2023-04-11T05:14:34.000Z,100.00
2023-04-11T05:15:34.000Z,100.00
2023-04-11T05:16:34.000Z,99.75
2023-04-11T05:17:34.000Z,100.00
2023-04-11T05:18:34.000Z,99.39
2023-04-11T05:19:34.000Z,99.27
2023-04-11T05:20:34.000Z,99.67
2023-04-11T05:21:35.000Z,98.86
2023-04-11T05:22:34.000Z,99.70
2023-04-11T05:23:34.000Z,98.92
2023-04-11T05:24:33.000Z,99.34
2023-04-11T05:25:34.000Z,98.65
2023-04-11T05:26:33.000Z,98.40
2023-04-11T05:27:34.000Z,98.02
2023-04-11T05:28:34.000Z,97.84
2023-04-11T05:29:33.000Z,97.82
2023-04-11T05:30:33.000Z,97.58
2023-04-11T05:31:33.000Z,97.49
2023-04-11T05:32:33.000Z,97.13
2023-04-11T05:33:38.000Z,97.20
2023-04-11T05:34:48.000Z,97.73
2023-04-11T05:35:33.000Z,98.22
2023-04-11T05:36:34.000Z,97.32
2023-04-11T05:37:34.000Z,97.17
2023-04-11T05:38:33.000Z,97.01
2023-04-11T05:39:33.000Z,96.55
2023-04-11T05:40:34.000Z,96.17
2023-04-11T05:41:33.000Z,96.25
2023-04-11T05:42:34.000Z,95.92
2023-04-11T05:43:33.000Z,95.99
2023-04-11T05:44:33.000Z,95.58
2023-04-11T05:45:33.000Z,95.99
2023-04-11T05:46:35.000Z,95.66
2023-04-11T05:47:38.000Z,95.34
2023-04-11T05:48:34.000Z,95.26
2023-04-11T05:49:33.000Z,95.74
2023-04-11T05:50:34.000Z,95.42
2023-04-11T05:51:33.000Z,95.52
2023-04-11T05:52:33.000Z,95.63
2023-04-11T05:53:33.000Z,95.96
2023-04-11T05:54:34.000Z,96.05
2023-04-11T05:55:34.000Z,96.07
2023-04-11T05:56:36.000Z,95.80
2023-04-11T05:57:34.000Z,95.79
2023-04-11T05:58:37.000Z,95.52
2023-04-11T05:59:34.000Z,95.59
2023-04-11T06:00:34.000Z,95.46
2023-04-11T06:01:38.000Z,94.97
2023-04-11T06:02:34.000Z,95.32
2023-04-11T06:03:34.000Z,95.11
2023-04-11T06:04:34.000Z,95.12
2023-04-11T06:05:35.000Z,94.30
2023-04-11T06:06:34.000Z,93.53
2023-04-11T06:07:34.000Z,93.56
2023-04-11T06:08:34.000Z,93.84
2023-04-11T06:09:34.000Z,93.77
2023-04-11T06:10:34.000Z,93.53
2023-04-11T06:11:34.000Z,92.98
2023-04-11T06:12:34.000Z,93.52
2023-04-11T06:13:34.000Z,92.69
2023-04-11T06:14:34.000Z,92.59
2023-04-11T06:15:34.000Z,92.30
2023-04-11T06:16:35.000Z,92.25
2023-04-11T06:17:34.000Z,92.06
2023-04-11T06:18:34.000Z,92.11
2023-04-11T06:19:34.000Z,92.47
2023-04-11T06:20:34.000Z,92.47
2023-04-11T06:21:34.000Z,92.36
2023-04-11T06:22:34.000Z,93.11
2023-04-11T06:23:34.000Z,93.16
2023-04-11T06:24:36.000Z,93.05
2023-04-11T06:25:34.000Z,92.56
2023-04-11T06:26:34.000Z,92.18
2023-04-11T06:27:34.000Z,91.85
2023-04-11T06:28:33.000Z,92.26
2023-04-11T06:29:37.000Z,92.19
2023-04-11T06:30:33.000Z,92.19
2023-04-11T06:31:34.000Z,91.82
2023-04-11T06:32:33.000Z,92.21
2023-04-11T06:33:33.000Z,92.02
2023-04-11T06:34:33.000Z,91.82
2023-04-11T06:35:33.000Z,90.96
2023-04-11T06:36:35.000Z,91.37
2023-04-11T06:37:33.000Z,91.03
2023-04-11T06:38:34.000Z,91.32
2023-04-11T06:39:33.000Z,90.30
2023-04-11T06:40:33.000Z,90.19
2023-04-11T06:41:34.000Z,90.20
2023-04-11T06:42:33.000Z,90.45
2023-04-11T06:43:33.000Z,90.40
2023-04-11T06:44:34.000Z,90.37
2023-04-11T06:45:33.000Z,89.88
2023-04-11T06:46:33.000Z,90.41
2023-04-11T06:47:33.000Z,89.81
2023-04-11T06:48:33.000Z,90.54
2023-04-11T06:49:33.000Z,91.07
2023-04-11T06:50:36.000Z,91.93
2023-04-11T06:51:34.000Z,91.53
2023-04-11T06:52:35.000Z,90.80
2023-04-11T06:53:34.000Z,91.33
2023-04-11T06:54:34.000Z,92.03
2023-04-11T06:55:33.000Z,91.88
2023-04-11T06:56:35.000Z,90.88
2023-04-11T06:57:34.000Z,91.17
2023-04-11T06:58:34.000Z,90.45
2023-04-11T06:59:34.000Z,89.79
2023-04-11T07:00:35.000Z,89.36
2023-04-11T07:01:36.000Z,89.05
2023-04-11T07:02:34.000Z,88.76
2023-04-11T07:03:35.000Z,89.14
2023-04-11T07:04:34.000Z,89.16
2023-04-11T07:05:34.000Z,89.15
2023-04-11T07:06:37.000Z,89.61
2023-04-11T07:07:34.000Z,89.62
2023-04-11T07:08:34.000Z,88.98
2023-04-11T07:09:34.000Z,87.83
2023-04-11T07:10:34.000Z,87.03
2023-04-11T07:11:34.000Z,87.16
2023-04-11T07:12:34.000Z,87.16
2023-04-11T07:13:34.000Z,87.46
2023-04-11T07:14:34.000Z,87.98
2023-04-11T07:15:34.000Z,87.38
2023-04-11T07:16:34.000Z,86.73
2023-04-11T07:17:34.000Z,86.58
2023-04-11T07:18:34.000Z,87.24
2023-04-11T07:19:34.000Z,86.38
2023-04-11T07:20:35.000Z,86.18
2023-04-11T07:21:36.000Z,86.09
2023-04-11T07:22:36.000Z,85.72
2023-04-11T07:23:34.000Z,85.53
2023-04-11T07:24:34.000Z,85.08
2023-04-11T07:25:34.000Z,84.60
2023-04-11T07:26:37.000Z,83.89
2023-04-11T07:27:34.000Z,84.77
2023-04-11T07:28:36.000Z,84.95
2023-04-11T07:29:34.000Z,84.75
2023-04-11T07:30:36.000Z,83.92
2023-04-11T07:31:34.000Z,84.11
2023-04-11T07:32:34.000Z,84.31
2023-04-11T07:33:35.000Z,85.12
2023-04-11T07:34:34.000Z,84.85
2023-04-11T07:35:34.000Z,85.66
2023-04-11T07:36:34.000Z,84.87
2023-04-11T07:37:34.000Z,81.56
2023-04-11T07:38:35.000Z,81.89
2023-04-11T07:39:34.000Z,82.90
2023-04-11T07:40:34.000Z,83.94
2023-04-11T07:41:37.000Z,83.05
2023-04-11T07:42:34.000Z,82.57
2023-04-11T07:43:34.000Z,82.58
2023-04-11T07:44:34.000Z,82.56
2023-04-11T07:45:34.000Z,82.42
2023-04-11T07:46:34.000Z,82.15
2023-04-11T07:47:34.000Z,82.60
2023-04-11T07:48:34.000Z,83.32
2023-04-11T07:49:34.000Z,82.85
2023-04-11T07:50:34.000Z,82.66
2023-04-11T07:51:34.000Z,81.76
2023-04-11T07:52:34.000Z,82.83
2023-04-11T07:53:34.000Z,82.56
2023-04-11T07:54:35.000Z,81.53
2023-04-11T07:55:34.000Z,81.52
2023-04-11T07:56:34.000Z,80.40
2023-04-11T07:57:34.000Z,80.08
2023-04-11T07:58:33.000Z,79.79
2023-04-11T07:59:35.000Z,78.48
2023-04-11T08:00:34.000Z,77.02
2023-04-11T08:01:34.000Z,76.86
2023-04-11T08:02:33.000Z,77.27
2023-04-11T08:03:34.000Z,77.31
2023-04-11T08:04:35.000Z,76.42
2023-04-11T08:05:35.000Z,76.21
2023-04-11T08:06:34.000Z,76.50
2023-04-11T08:07:33.000Z,75.91
2023-04-11T08:08:34.000Z,77.41
2023-04-11T08:09:33.000Z,78.41
2023-04-11T08:10:33.000Z,78.59
2023-04-11T08:11:33.000Z,79.19
2023-04-11T08:12:34.000Z,79.93
2023-04-11T08:13:34.000Z,80.98
2023-04-11T08:14:34.000Z,79.24
2023-04-11T08:15:35.000Z,78.07
2023-04-11T08:16:34.000Z,78.13
2023-04-11T08:17:36.000Z,79.59
2023-04-11T08:18:34.000Z,80.73
2023-04-11T08:19:35.000Z,80.21
2023-04-11T08:20:34.000Z,79.88
2023-04-11T08:21:34.000Z,79.33
2023-04-11T08:22:34.000Z,77.64
2023-04-11T08:23:35.000Z,78.60
2023-04-11T08:24:33.000Z,78.06
2023-04-11T08:25:35.000Z,78.74
2023-04-11T08:26:33.000Z,77.61
2023-04-11T08:27:34.000Z,74.38
2023-04-11T08:28:35.000Z,73.52
2023-04-11T08:29:34.000Z,73.55
2023-04-11T08:30:34.000Z,73.55
2023-04-11T08:31:34.000Z,72.90
2023-04-11T08:32:34.000Z,73.23
2023-04-11T08:33:34.000Z,73.85
2023-04-11T08:34:34.000Z,74.94
2023-04-11T08:35:34.000Z,72.09
2023-04-11T08:36:34.000Z,71.60
2023-04-11T08:37:34.000Z,69.81
2023-04-11T08:38:35.000Z,68.99
2023-04-11T08:39:34.000Z,71.74
2023-04-11T08:40:34.000Z,72.81
2023-04-11T08:41:36.000Z,72.01
2023-04-11T08:42:34.000Z,70.93
2023-04-11T08:43:38.000Z,70.25
2023-04-11T08:44:35.000Z,71.25
2023-04-11T08:45:34.000Z,68.00
2023-04-11T08:46:40.000Z,66.55
2023-04-11T08:47:35.000Z,67.29
2023-04-11T08:48:34.000Z,68.65
2023-04-11T08:49:34.000Z,70.00
2023-04-11T08:50:34.000Z,68.03
2023-04-11T08:51:34.000Z,68.88
2023-04-11T08:52:36.000Z,70.08
2023-04-11T08:53:36.000Z,68.43
2023-04-11T08:54:34.000Z,69.89
2023-04-11T08:55:42.000Z,69.72
2023-04-11T08:56:34.000Z,69.68
2023-04-11T08:57:37.000Z,69.71
2023-04-11T08:58:34.000Z,66.60
2023-04-11T08:59:34.000Z,65.83
2023-04-11T09:00:35.000Z,65.30
2023-04-11T09:01:36.000Z,65.42
2023-04-11T09:02:34.000Z,64.64
2023-04-11T09:03:49.000Z,63.30
2023-04-11T09:04:40.000Z,64.07
2023-04-11T09:05:39.000Z,64.03
2023-04-11T09:06:34.000Z,65.35
2023-04-11T09:07:45.000Z,64.68
2023-04-11T09:08:37.000Z,64.53
2023-04-11T09:09:35.000Z,63.33
2023-04-11T09:10:35.000Z,64.33
2023-04-11T09:11:44.000Z,63.82
2023-04-11T09:12:34.000Z,64.10
2023-04-11T09:13:34.000Z,64.66
2023-04-11T09:14:34.000Z,64.25
2023-04-11T09:15:34.000Z,64.63
2023-04-11T09:16:35.000Z,64.53
2023-04-11T09:17:39.000Z,64.29
2023-04-11T09:18:36.000Z,63.77
2023-04-11T09:19:34.000Z,63.12
2023-04-11T09:20:34.000Z,63.88
2023-04-11T09:21:47.000Z,64.68
2023-04-11T09:22:34.000Z,63.65
2023-04-11T09:23:35.000Z,62.58
2023-04-11T09:24:35.000Z,61.53
2023-04-11T09:25:43.000Z,61.61
2023-04-11T09:26:34.000Z,61.51
2023-04-11T09:27:34.000Z,61.70
2023-04-11T09:28:43.000Z,61.58
2023-04-11T09:29:40.000Z,60.70
2023-04-11T09:30:34.000Z,62.49
2023-04-11T09:31:43.000Z,61.63
2023-04-11T09:32:34.000Z,61.88
2023-04-11T09:33:34.000Z,61.98
2023-04-11T09:34:36.000Z,61.29
2023-04-11T09:35:34.000Z,60.57
2023-04-11T09:36:34.000Z,60.48
2023-04-11T09:37:43.000Z,59.29
2023-04-11T09:38:35.000Z,59.81
2023-04-11T09:39:34.000Z,59.46
2023-04-11T09:40:41.000Z,59.39
2023-04-11T09:41:35.000Z,58.84
2023-04-11T09:42:34.000Z,58.59
2023-04-11T09:43:44.000Z,60.39
2023-04-11T09:44:36.000Z,61.31
2023-04-11T09:45:34.000Z,60.43
2023-04-11T09:46:34.000Z,61.55
2023-04-11T09:47:34.000Z,60.89
2023-04-11T09:48:36.000Z,59.41
2023-04-11T09:49:34.000Z,59.93
2023-04-11T09:50:36.000Z,59.76
2023-04-11T09:51:35.000Z,60.08
2023-04-11T09:52:34.000Z,59.71
2023-04-11T09:53:35.000Z,59.81
2023-04-11T09:54:34.000Z,59.36
2023-04-11T09:55:36.000Z,59.27
2023-04-11T09:56:35.000Z,57.92
2023-04-11T09:57:35.000Z,57.68
2023-04-11T09:58:36.000Z,57.80
2023-04-11T09:59:36.000Z,59.00
2023-04-11T10:00:34.000Z,59.87
2023-04-11T10:01:36.000Z,60.47
2023-04-11T10:02:34.000Z,60.83
2023-04-11T10:03:37.000Z,61.17
2023-04-11T10:04:34.000Z,61.82
2023-04-11T10:05:36.000Z,62.02
2023-04-11T10:06:59.000Z,62.44
2023-04-11T10:07:42.000Z,62.11
2023-04-11T10:08:35.000Z,62.21
2023-04-11T10:09:37.000Z,61.24
2023-04-11T10:10:35.000Z,62.06
2023-04-11T10:11:34.000Z,62.00
2023-04-11T10:12:34.000Z,61.27
2023-04-11T10:13:44.000Z,62.06
2023-04-11T10:14:40.000Z,61.68
2023-04-11T10:15:34.000Z,61.69
2023-04-11T10:16:34.000Z,62.18
2023-04-11T10:17:35.000Z,63.08
2023-04-11T10:18:35.000Z,63.42
2023-04-11T10:19:34.000Z,63.61
2023-04-11T10:20:42.000Z,64.22
2023-04-11T10:21:38.000Z,63.67
2023-04-11T10:22:55.000Z,64.36
2023-04-11T10:23:44.000Z,64.28
2023-04-11T10:24:34.000Z,64.85
2023-04-11T10:25:44.000Z,64.20
2023-04-11T10:26:44.000Z,63.86
2023-04-11T10:27:44.000Z,62.23
2023-04-11T10:28:38.000Z,62.98
2023-04-11T10:29:44.000Z,60.76
2023-04-11T10:30:54.000Z,60.37
2023-04-11T10:31:59.000Z,60.22
2023-04-11T10:32:34.000Z,61.10
2023-04-11T10:33:35.000Z,60.99
2023-04-11T10:34:38.000Z,60.61
2023-04-11T10:35:34.000Z,60.29
2023-04-11T10:36:46.000Z,60.13
2023-04-11T10:37:35.000Z,60.25
2023-04-11T10:38:42.000Z,61.60
2023-04-11T10:39:44.000Z,60.44
2023-04-11T10:40:34.000Z,59.77
2023-04-11T10:41:34.000Z,59.29
2023-04-11T10:42:36.000Z,59.30
2023-04-11T10:43:35.000Z,58.42
2023-04-11T10:44:34.000Z,59.25
2023-04-11T10:45:39.000Z,59.28
2023-04-11T10:46:43.000Z,59.74
2023-04-11T10:47:34.000Z,60.07
2023-04-11T10:48:54.000Z,60.35
2023-04-11T10:49:38.000Z,60.35
2023-04-11T10:50:39.000Z,60.66
2023-04-11T10:51:34.000Z,60.39
2023-04-11T10:52:37.000Z,60.58
2023-04-11T10:53:35.000Z,59.47
2023-04-11T10:54:34.000Z,60.34
2023-04-11T10:55:43.000Z,60.00
2023-04-11T10:56:57.000Z,60.99
2023-04-11T10:57:54.000Z,61.29
2023-04-11T10:58:36.000Z,59.64
2023-04-11T10:59:55.000Z,57.37
2023-04-11T11:00:44.000Z,57.29
2023-04-11T11:01:35.000Z,56.95
2023-04-11T11:02:34.000Z,57.83
2023-04-11T11:03:34.000Z,58.64
2023-04-11T11:04:37.000Z,58.96
2023-04-11T11:05:33.000Z,59.80
2023-04-11T11:06:33.000Z,59.05
2023-04-11T11:07:34.000Z,59.62
2023-04-11T11:08:35.000Z,59.44
2023-04-11T11:09:33.000Z,59.71
2023-04-11T11:10:43.000Z,59.86
2023-04-11T11:11:33.000Z,60.45
2023-04-11T11:12:33.000Z,58.69
2023-04-11T11:13:43.000Z,58.81
2023-04-11T11:14:34.000Z,58.66
2023-04-11T11:15:36.000Z,59.24
2023-04-11T11:16:33.000Z,58.86
2023-04-11T11:17:33.000Z,59.50
2023-04-11T11:18:35.000Z,59.48
2023-04-11T11:19:41.000Z,60.07
2023-04-11T11:20:34.000Z,60.24
2023-04-11T11:21:33.000Z,59.45
2023-04-11T11:22:34.000Z,59.65
2023-04-11T11:23:34.000Z,58.58
2023-04-11T11:24:33.000Z,58.59
2023-04-11T11:25:34.000Z,58.50
2023-04-11T11:26:41.000Z,58.90
2023-04-11T11:27:33.000Z,58.65
2023-04-11T11:28:44.000Z,58.29
2023-04-11T11:29:35.000Z,58.57
2023-04-11T11:30:35.000Z,58.49
2023-04-11T11:31:39.000Z,57.87
2023-04-11T11:32:33.000Z,58.54
2023-04-11T11:33:38.000Z,58.13
2023-04-11T11:34:33.000Z,57.48
2023-04-11T11:35:33.000Z,57.18
2023-04-11T11:36:37.000Z,58.33
2023-04-11T11:37:34.000Z,58.46
2023-04-11T11:38:33.000Z,58.08
2023-04-11T11:39:34.000Z,58.01
2023-04-11T11:40:34.000Z,57.85
2023-04-11T11:41:34.000Z,58.25
2023-04-11T11:42:39.000Z,56.98
2023-04-11T11:43:34.000Z,57.33
2023-04-11T11:44:33.000Z,55.90
2023-04-11T11:45:33.000Z,56.50
2023-04-11T11:46:34.000Z,57.13
2023-04-11T11:47:39.000Z,57.76
2023-04-11T11:48:34.000Z,57.67
2023-04-11T11:49:43.000Z,58.27
2023-04-11T11:50:33.000Z,57.49
2023-04-11T11:51:43.000Z,56.67
2023-04-11T11:52:36.000Z,56.79
2023-04-11T11:53:33.000Z,56.57
2023-04-11T11:54:43.000Z,56.87
2023-04-11T11:55:33.000Z,57.43
2023-04-11T11:56:37.000Z,57.66
2023-04-11T11:57:34.000Z,56.39
2023-04-11T11:58:40.000Z,55.90
2023-04-11T11:59:33.000Z,56.06
2023-04-11T12:00:37.000Z,54.87
2023-04-11T12:01:35.000Z,54.70
2023-04-11T12:02:38.000Z,55.05
2023-04-11T12:03:36.000Z,55.38
2023-04-11T12:04:34.000Z,55.40
2023-04-11T12:05:34.000Z,55.35
2023-04-11T12:06:34.000Z,54.39
2023-04-11T12:07:38.000Z,54.70
2023-04-11T12:08:39.000Z,55.42
2023-04-11T12:09:34.000Z,55.48
2023-04-11T12:10:43.000Z,56.01
2023-04-11T12:11:37.000Z,56.58
2023-04-11T12:12:41.000Z,55.24
2023-04-11T12:13:34.000Z,54.64
2023-04-11T12:14:34.000Z,55.51
2023-04-11T12:15:34.000Z,55.83
2023-04-11T12:16:37.000Z,55.36
2023-04-11T12:17:34.000Z,55.38
2023-04-11T12:18:38.000Z,55.62
2023-04-11T12:19:34.000Z,55.31
2023-04-11T12:20:34.000Z,55.51
2023-04-11T12:21:33.000Z,55.53
2023-04-11T12:22:34.000Z,54.81
2023-04-11T12:23:34.000Z,53.86
2023-04-11T12:24:33.000Z,53.45
2023-04-11T12:25:34.000Z,54.10
2023-04-11T12:26:33.000Z,54.65
2023-04-11T12:27:36.000Z,54.33
2023-04-11T12:28:34.000Z,54.49
2023-04-11T12:29:33.000Z,54.18
2023-04-11T12:30:34.000Z,53.88
2023-04-11T12:31:34.000Z,53.23
2023-04-11T12:32:34.000Z,52.00
2023-04-11T12:33:33.000Z,51.62
2023-04-11T12:34:34.000Z,50.55
2023-04-11T12:35:33.000Z,50.78
2023-04-11T12:36:35.000Z,50.50
2023-04-11T12:37:34.000Z,51.29
2023-04-11T12:38:34.000Z,51.39
2023-04-11T12:39:34.000Z,50.71
2023-04-11T12:40:34.000Z,49.08
2023-04-11T12:41:33.000Z,49.54
2023-04-11T12:42:33.000Z,49.01
2023-04-11T12:43:33.000Z,49.19
2023-04-11T12:44:34.000Z,49.13
2023-04-11T12:45:34.000Z,49.34
2023-04-11T12:46:33.000Z,48.98
2023-04-11T12:47:34.000Z,48.57
2023-04-11T12:48:33.000Z,48.80
2023-04-11T12:49:33.000Z,50.17
2023-04-11T12:50:33.000Z,50.21